createdAt,value
2018-07-09T00:00:11.089Z,21.5555555556
2018-07-09T00:00:23.557Z,21.5555555556
2018-07-09T00:00:35.967Z,21.5555555556
2018-07-09T00:00:48.378Z,21.5555555556
2018-07-09T00:01:00.839Z,21.5555555556
2018-07-09T00:01:13.249Z,21.5555555556
2018-07-09T00:01:25.868Z,21.5555555556
2018-07-09T00:01:38.399Z,21.5555555556
2018-07-09T00:01:50.821Z,21.5555555556
2018-07-09T00:02:03.256Z,21.5555555556
2018-07-09T00:02:15.674Z,21.5
2018-07-09T00:02:28.082Z,21.5
2018-07-09T00:02:40.480Z,21.5
2018-07-09T00:02:52.882Z,21.5
2018-07-09T00:03:05.303Z,21.5555555556
2018-07-09T00:03:17.706Z,21.5
2018-07-09T00:03:30.157Z,21.5
2018-07-09T00:03:42.540Z,21.5
2018-07-09T00:03:54.924Z,21.4444444444
2018-07-09T00:04:07.359Z,21.5
2018-07-09T00:04:19.767Z,21.4444444444
2018-07-09T00:04:32.261Z,21.4444444444
2018-07-09T00:04:44.668Z,21.4444444444
2018-07-09T00:04:57.062Z,21.4444444444
2018-07-09T00:05:09.467Z,21.4444444444
2018-07-09T00:05:21.877Z,21.4444444444
2018-07-09T00:05:34.261Z,21.4444444444
2018-07-09T00:05:46.661Z,21.4444444444
2018-07-09T00:05:59.063Z,21.4444444444
2018-07-09T00:06:11.640Z,21.3888888889
2018-07-09T00:06:24.745Z,21.3888888889
2018-07-09T00:06:37.148Z,21.3888888889
2018-07-09T00:06:49.560Z,21.3888888889
2018-07-09T00:07:01.962Z,21.3888888889
2018-07-09T00:07:14.385Z,21.3888888889
2018-07-09T00:07:26.784Z,21.3888888889
2018-07-09T00:07:39.195Z,21.3888888889
2018-07-09T00:07:51.598Z,21.3888888889
2018-07-09T00:08:03.991Z,21.3888888889
2018-07-09T00:08:16.386Z,21.3333333333
2018-07-09T00:08:28.787Z,21.3888888889
2018-07-09T00:08:41.209Z,21.3888888889
2018-07-09T00:08:53.605Z,21.3333333333
2018-07-09T00:09:06.006Z,21.3333333333
2018-07-09T00:09:18.416Z,21.3333333333
2018-07-09T00:09:30.863Z,21.3333333333
2018-07-09T00:09:43.278Z,21.3333333333
2018-07-09T00:09:55.682Z,21.3333333333
2018-07-09T00:10:08.077Z,21.3333333333
2018-07-09T00:10:20.483Z,21.3333333333
2018-07-09T00:10:32.889Z,21.2777777778
2018-07-09T00:10:45.292Z,21.2777777778
2018-07-09T00:10:57.706Z,21.2777777778
2018-07-09T00:11:10.116Z,21.2777777778
2018-07-09T00:11:22.527Z,21.2777777778
2018-07-09T00:11:34.968Z,21.2222222222
2018-07-09T00:11:47.374Z,21.2777777778
2018-07-09T00:11:59.767Z,21.2777777778
2018-07-09T00:12:12.176Z,21.2222222222
2018-07-09T00:12:24.591Z,21.2222222222
2018-07-09T00:12:37.006Z,21.2777777778
2018-07-09T00:12:49.406Z,21.2222222222
2018-07-09T00:13:01.810Z,21.2222222222
2018-07-09T00:13:14.214Z,21.2222222222
2018-07-09T00:13:26.620Z,21.2222222222
2018-07-09T00:13:39.102Z,21.2222222222
2018-07-09T00:13:51.509Z,21.2222222222
2018-07-09T00:14:03.935Z,21.1666666667
2018-07-09T00:14:16.332Z,21.1666666667
2018-07-09T00:14:28.805Z,21.1666666667
2018-07-09T00:14:41.206Z,21.1666666667
2018-07-09T00:14:53.602Z,21.1666666667
2018-07-09T00:15:06.021Z,21.1666666667
2018-07-09T00:15:18.434Z,21.1666666667
2018-07-09T00:15:30.850Z,21.1666666667
2018-07-09T00:15:43.246Z,21.1111111111
2018-07-09T00:15:55.639Z,21.1111111111
2018-07-09T00:16:08.147Z,21.1666666667
2018-07-09T00:16:20.546Z,21.1111111111
2018-07-09T00:16:33.087Z,21.1111111111
2018-07-09T00:16:45.486Z,21.1111111111
2018-07-09T00:16:57.973Z,21.1111111111
2018-07-09T00:17:10.378Z,21.1111111111
2018-07-09T00:17:22.798Z,21.1111111111
2018-07-09T00:17:35.209Z,21.0555555556
2018-07-09T00:17:47.637Z,21.1111111111
2018-07-09T00:18:00.038Z,21.0555555556
2018-07-09T00:18:12.442Z,21.0555555556
2018-07-09T00:18:24.851Z,21.0555555556
2018-07-09T00:18:37.264Z,21.0555555556
2018-07-09T00:18:49.661Z,21.0555555556
2018-07-09T00:19:02.075Z,21.0555555556
2018-07-09T00:19:14.468Z,21
2018-07-09T00:19:26.917Z,21.0555555556
2018-07-09T00:19:39.316Z,21
2018-07-09T00:19:51.724Z,21
2018-07-09T00:20:04.195Z,21.0555555556
2018-07-09T00:20:16.590Z,21.0555555556
2018-07-09T00:20:28.993Z,21
2018-07-09T00:20:41.398Z,21
2018-07-09T00:20:53.816Z,21
2018-07-09T00:21:06.224Z,21
2018-07-09T00:21:18.646Z,21
2018-07-09T00:21:31.043Z,21
2018-07-09T00:21:43.436Z,21
2018-07-09T00:21:55.851Z,20.9444444444
2018-07-09T00:22:08.299Z,20.9444444444
2018-07-09T00:22:20.704Z,20.9444444444
2018-07-09T00:22:33.110Z,20.9444444444
2018-07-09T00:22:45.513Z,20.9444444444
2018-07-09T00:22:57.915Z,20.9444444444
2018-07-09T00:23:10.320Z,20.9444444444
2018-07-09T00:23:22.723Z,20.9444444444
2018-07-09T00:23:35.140Z,20.9444444444
2018-07-09T00:23:47.529Z,20.9444444444
2018-07-09T00:23:59.950Z,20.8888888889
2018-07-09T00:24:12.349Z,20.8888888889
2018-07-09T00:24:24.743Z,20.8888888889
2018-07-09T00:24:37.154Z,20.8888888889
2018-07-09T00:24:49.555Z,20.8888888889
2018-07-09T00:25:01.965Z,20.8888888889
2018-07-09T00:25:14.366Z,20.8888888889
2018-07-09T00:25:26.812Z,20.8888888889
2018-07-09T00:25:39.202Z,20.8888888889
2018-07-09T00:25:51.614Z,20.8333333333
2018-07-09T00:26:04.029Z,20.8333333333
2018-07-09T00:26:16.420Z,20.8888888889
2018-07-09T00:26:28.929Z,20.8333333333
2018-07-09T00:26:41.321Z,20.8333333333
2018-07-09T00:26:53.727Z,20.8333333333
2018-07-09T00:27:06.129Z,20.8333333333
2018-07-09T00:27:18.566Z,20.8333333333
2018-07-09T00:27:30.956Z,20.8333333333
2018-07-09T00:27:43.370Z,20.8333333333
2018-07-09T00:27:55.773Z,20.8333333333
2018-07-09T00:28:08.189Z,20.8333333333
2018-07-09T00:28:20.595Z,20.8333333333
2018-07-09T00:28:33.019Z,20.8333333333
2018-07-09T00:28:45.417Z,20.7777777778
2018-07-09T00:28:57.814Z,20.7777777778
2018-07-09T00:29:10.236Z,20.7777777778
2018-07-09T00:29:22.630Z,20.7777777778
2018-07-09T00:29:35.027Z,20.7777777778
2018-07-09T00:29:47.487Z,20.7777777778
2018-07-09T00:29:59.884Z,20.7777777778
2018-07-09T00:30:12.283Z,20.7777777778
2018-07-09T00:30:24.716Z,20.7777777778
2018-07-09T00:30:37.124Z,20.7777777778
2018-07-09T00:30:49.569Z,20.7777777778
2018-07-09T00:31:01.989Z,20.7222222222
2018-07-09T00:31:14.382Z,20.7777777778
2018-07-09T00:31:26.843Z,20.7777777778
2018-07-09T00:31:39.240Z,20.7222222222
2018-07-09T00:31:51.662Z,20.7222222222
2018-07-09T00:32:04.068Z,20.7222222222
2018-07-09T00:32:16.645Z,20.7777777778
2018-07-09T00:32:29.749Z,20.7222222222
2018-07-09T00:32:42.152Z,20.7222222222
2018-07-09T00:32:54.577Z,20.7222222222
2018-07-09T00:33:06.999Z,20.7222222222
2018-07-09T00:33:19.411Z,20.6666666667
2018-07-09T00:33:31.814Z,20.6666666667
2018-07-09T00:33:44.216Z,20.6666666667
2018-07-09T00:33:56.626Z,20.6666666667
2018-07-09T00:34:09.042Z,20.6666666667
2018-07-09T00:34:21.460Z,20.6666666667
2018-07-09T00:34:33.865Z,20.6666666667
2018-07-09T00:34:46.322Z,20.6666666667
2018-07-09T00:34:58.717Z,20.6666666667
2018-07-09T00:35:11.114Z,20.6666666667
2018-07-09T00:35:23.522Z,20.6666666667
2018-07-09T00:35:35.911Z,20.6666666667
2018-07-09T00:35:48.338Z,20.6666666667
2018-07-09T00:36:00.749Z,20.6666666667
2018-07-09T00:36:13.143Z,20.6666666667
2018-07-09T00:36:25.633Z,20.6666666667
2018-07-09T00:36:38.050Z,20.6111111111
2018-07-09T00:36:50.443Z,20.6111111111
2018-07-09T00:37:02.850Z,20.6111111111
2018-07-09T00:37:15.248Z,20.6111111111
2018-07-09T00:37:27.639Z,20.6111111111
2018-07-09T00:37:40.160Z,20.5555555556
2018-07-09T00:37:52.557Z,20.6111111111
2018-07-09T00:38:04.952Z,20.5555555556
2018-07-09T00:38:17.337Z,20.5555555556
2018-07-09T00:38:29.737Z,20.5555555556
2018-07-09T00:38:42.134Z,20.5555555556
2018-07-09T00:38:54.538Z,20.5555555556
2018-07-09T00:39:06.937Z,20.5555555556
2018-07-09T00:39:19.386Z,20.5555555556
2018-07-09T00:39:31.796Z,20.5
2018-07-09T00:39:44.221Z,20.5555555556
2018-07-09T00:39:56.627Z,20.5
2018-07-09T00:40:09.071Z,20.5555555556
2018-07-09T00:40:21.479Z,20.5
2018-07-09T00:40:33.877Z,20.5
2018-07-09T00:40:46.301Z,20.5
2018-07-09T00:40:58.724Z,20.5
2018-07-09T00:41:11.157Z,20.5
2018-07-09T00:41:23.578Z,20.5
2018-07-09T00:41:36.048Z,20.5
2018-07-09T00:41:48.455Z,20.5
2018-07-09T00:42:00.848Z,20.5
2018-07-09T00:42:13.245Z,20.5
2018-07-09T00:42:25.641Z,20.4444444444
2018-07-09T00:42:38.042Z,20.4444444444
2018-07-09T00:42:50.433Z,20.4444444444
2018-07-09T00:43:02.845Z,20.4444444444
2018-07-09T00:43:15.256Z,20.4444444444
2018-07-09T00:43:27.661Z,20.4444444444
2018-07-09T00:43:40.086Z,20.4444444444
2018-07-09T00:43:52.491Z,20.4444444444
2018-07-09T00:44:05.045Z,20.4444444444
2018-07-09T00:44:17.448Z,20.4444444444
2018-07-09T00:44:29.865Z,20.4444444444
2018-07-09T00:44:42.267Z,20.3888888889
2018-07-09T00:44:54.662Z,20.3888888889
2018-07-09T00:45:07.063Z,20.4444444444
2018-07-09T00:45:19.474Z,20.4444444444
2018-07-09T00:45:31.890Z,20.3888888889
2018-07-09T00:45:44.298Z,20.3888888889
2018-07-09T00:45:56.715Z,20.3888888889
2018-07-09T00:46:09.129Z,20.3888888889
2018-07-09T00:46:21.533Z,20.3888888889
2018-07-09T00:46:33.946Z,20.3888888889
2018-07-09T00:46:46.450Z,20.3888888889
2018-07-09T00:46:59.155Z,20.3333333333
2018-07-09T00:47:11.569Z,20.3888888889
2018-07-09T00:47:23.971Z,20.3333333333
2018-07-09T00:47:36.378Z,20.3333333333
2018-07-09T00:47:48.787Z,20.3888888889
2018-07-09T00:48:01.196Z,20.3333333333
2018-07-09T00:48:13.618Z,20.3333333333
2018-07-09T00:48:26.030Z,20.3333333333
2018-07-09T00:48:38.440Z,20.3333333333
2018-07-09T00:48:51.048Z,20.3333333333
2018-07-09T00:49:03.445Z,20.3333333333
2018-07-09T00:49:15.833Z,20.2777777778
2018-07-09T00:49:28.231Z,20.3333333333
2018-07-09T00:49:40.623Z,20.2777777778
2018-07-09T00:49:53.031Z,20.2777777778
2018-07-09T00:50:05.423Z,20.2777777778
2018-07-09T00:50:17.831Z,20.2777777778
2018-07-09T00:50:30.244Z,20.2777777778
2018-07-09T00:50:42.722Z,20.2777777778
2018-07-09T00:50:55.323Z,20.2777777778
2018-07-09T00:51:08.642Z,20.2777777778
2018-07-09T00:51:21.036Z,20.2777777778
2018-07-09T00:51:33.440Z,20.2777777778
2018-07-09T00:51:45.841Z,20.2777777778
2018-07-09T00:51:58.256Z,20.2777777778
2018-07-09T00:52:10.657Z,20.2777777778
2018-07-09T00:52:23.070Z,20.2222222222
2018-07-09T00:52:35.468Z,20.2777777778
2018-07-09T00:52:47.921Z,20.2777777778
2018-07-09T00:53:00.329Z,20.2777777778
2018-07-09T00:53:12.749Z,20.2222222222
2018-07-09T00:53:25.190Z,20.2222222222
2018-07-09T00:53:37.588Z,20.2222222222
2018-07-09T00:53:50.084Z,20.2222222222
2018-07-09T00:54:02.601Z,20.2222222222
2018-07-09T00:54:15.021Z,20.2222222222
2018-07-09T00:54:27.429Z,20.2222222222
2018-07-09T00:54:39.844Z,20.2222222222
2018-07-09T00:54:52.388Z,20.2222222222
2018-07-09T00:55:04.785Z,20.2222222222
2018-07-09T00:55:17.202Z,20.2222222222
2018-07-09T00:55:29.598Z,20.2222222222
2018-07-09T00:55:42.001Z,20.2222222222
2018-07-09T00:55:54.491Z,20.1666666667
2018-07-09T00:56:06.886Z,20.2222222222
2018-07-09T00:56:19.287Z,20.2222222222
2018-07-09T00:56:31.691Z,20.1666666667
2018-07-09T00:56:44.082Z,20.1666666667
2018-07-09T00:56:56.495Z,20.1666666667
2018-07-09T00:57:08.899Z,20.1666666667
2018-07-09T00:57:21.304Z,20.1666666667
2018-07-09T00:57:33.694Z,20.1666666667
2018-07-09T00:57:46.096Z,20.1666666667
2018-07-09T00:57:58.487Z,20.1666666667
2018-07-09T00:58:10.896Z,20.1666666667
2018-07-09T00:58:23.308Z,20.1666666667
2018-07-09T00:58:35.709Z,20.1666666667
2018-07-09T00:58:48.115Z,20.1111111111
2018-07-09T00:59:00.518Z,20.1666666667
2018-07-09T00:59:12.930Z,20.1111111111
2018-07-09T00:59:25.362Z,20.1666666667
2018-07-09T00:59:37.785Z,20.1111111111
2018-07-09T00:59:50.205Z,20.1111111111
2018-07-09T01:00:02.607Z,20.1111111111
2018-07-09T01:00:15.041Z,20.1111111111
2018-07-09T01:00:27.515Z,20.1111111111
2018-07-09T01:00:40.008Z,20.0555555556
2018-07-09T01:00:52.421Z,20.1111111111
2018-07-09T01:01:04.842Z,20.1111111111
2018-07-09T01:01:17.262Z,20.1111111111
2018-07-09T01:01:29.965Z,20.0555555556
2018-07-09T01:01:42.495Z,20.1111111111
2018-07-09T01:01:54.916Z,20.0555555556
2018-07-09T01:02:07.374Z,20.0555555556
2018-07-09T01:02:19.779Z,20.0555555556
2018-07-09T01:02:32.218Z,20.0555555556
2018-07-09T01:02:44.640Z,20.0555555556
2018-07-09T01:02:57.065Z,20.0555555556
2018-07-09T01:03:09.498Z,20.0555555556
2018-07-09T01:03:21.962Z,20.0555555556
2018-07-09T01:03:34.381Z,20.0555555556
2018-07-09T01:03:46.837Z,20.0555555556
2018-07-09T01:03:59.252Z,20.0555555556
2018-07-09T01:04:11.671Z,20.0555555556
2018-07-09T01:04:24.136Z,20.0555555556
2018-07-09T01:04:36.527Z,20.0555555556
2018-07-09T01:04:48.950Z,20.0555555556
2018-07-09T01:05:01.363Z,20.0555555556
2018-07-09T01:05:13.816Z,20.0555555556
2018-07-09T01:05:26.227Z,20.0555555556
2018-07-09T01:05:38.651Z,20.0555555556
2018-07-09T01:05:51.067Z,20
2018-07-09T01:06:03.502Z,20.0555555556
2018-07-09T01:06:15.920Z,20.0555555556
2018-07-09T01:06:28.325Z,20.0555555556
2018-07-09T01:06:40.800Z,20
2018-07-09T01:06:53.199Z,20
2018-07-09T01:07:05.596Z,20.0555555556
2018-07-09T01:07:17.992Z,20
2018-07-09T01:07:30.389Z,20
2018-07-09T01:07:42.787Z,20
2018-07-09T01:07:55.208Z,20
2018-07-09T01:08:07.612Z,20
2018-07-09T01:08:20.051Z,20
2018-07-09T01:08:32.472Z,20
2018-07-09T01:08:44.878Z,20
2018-07-09T01:08:57.278Z,19.9444444444
2018-07-09T01:09:09.685Z,19.9444444444
2018-07-09T01:09:22.084Z,20
2018-07-09T01:09:34.503Z,20
2018-07-09T01:09:46.897Z,19.9444444444
2018-07-09T01:09:59.297Z,19.9444444444
2018-07-09T01:10:11.692Z,20
2018-07-09T01:10:24.104Z,20
2018-07-09T01:10:36.514Z,19.9444444444
2018-07-09T01:10:48.961Z,19.9444444444
2018-07-09T01:11:01.551Z,19.9444444444
2018-07-09T01:11:14.803Z,19.9444444444
2018-07-09T01:11:27.297Z,19.9444444444
2018-07-09T01:11:39.755Z,19.9444444444
2018-07-09T01:11:52.177Z,19.9444444444
2018-07-09T01:12:04.574Z,19.9444444444
2018-07-09T01:12:17.022Z,19.9444444444
2018-07-09T01:12:29.424Z,19.8888888889
2018-07-09T01:12:41.855Z,19.8888888889
2018-07-09T01:12:54.279Z,19.9444444444
2018-07-09T01:13:06.691Z,19.9444444444
2018-07-09T01:13:19.090Z,19.9444444444
2018-07-09T01:13:31.479Z,19.9444444444
2018-07-09T01:13:43.877Z,19.8888888889
2018-07-09T01:13:56.423Z,19.8888888889
2018-07-09T01:14:08.826Z,19.9444444444
2018-07-09T01:14:21.245Z,19.8888888889
2018-07-09T01:14:33.664Z,19.8888888889
2018-07-09T01:14:46.063Z,19.8888888889
2018-07-09T01:14:58.599Z,19.8888888889
2018-07-09T01:15:11.012Z,19.8888888889
2018-07-09T01:15:23.412Z,19.8888888889
2018-07-09T01:15:35.815Z,19.8888888889
2018-07-09T01:15:48.210Z,19.8888888889
2018-07-09T01:16:00.609Z,19.8888888889
2018-07-09T01:16:13.010Z,19.8888888889
2018-07-09T01:16:25.414Z,19.8888888889
2018-07-09T01:16:37.872Z,19.8888888889
2018-07-09T01:16:50.283Z,19.8333333333
2018-07-09T01:17:02.692Z,19.8888888889
2018-07-09T01:17:15.090Z,19.8333333333
2018-07-09T01:17:27.482Z,19.8888888889
2018-07-09T01:17:40.118Z,19.8333333333
2018-07-09T01:17:52.544Z,19.8333333333
2018-07-09T01:18:04.965Z,19.8333333333
2018-07-09T01:18:17.368Z,19.8333333333
2018-07-09T01:18:29.776Z,19.8888888889
2018-07-09T01:18:42.178Z,19.8333333333
2018-07-09T01:18:54.591Z,19.8333333333
2018-07-09T01:19:07.024Z,19.8333333333
2018-07-09T01:19:19.422Z,19.8333333333
2018-07-09T01:19:31.815Z,19.8333333333
2018-07-09T01:19:44.205Z,19.8333333333
2018-07-09T01:19:56.610Z,19.8333333333
2018-07-09T01:20:09.065Z,19.8333333333
2018-07-09T01:20:21.857Z,19.8333333333
2018-07-09T01:20:34.875Z,19.7777777778
2018-07-09T01:20:47.299Z,19.8333333333
2018-07-09T01:20:59.725Z,19.8333333333
2018-07-09T01:21:12.125Z,19.7777777778
2018-07-09T01:21:24.518Z,19.7777777778
2018-07-09T01:21:36.917Z,19.7777777778
2018-07-09T01:21:49.317Z,19.7777777778
2018-07-09T01:22:01.714Z,19.7777777778
2018-07-09T01:22:14.114Z,19.7777777778
2018-07-09T01:22:26.524Z,19.7777777778
2018-07-09T01:22:38.959Z,19.7777777778
2018-07-09T01:22:51.362Z,19.7777777778
2018-07-09T01:23:03.751Z,19.7777777778
2018-07-09T01:23:16.148Z,19.7777777778
2018-07-09T01:23:28.560Z,19.7777777778
2018-07-09T01:23:40.957Z,19.7777777778
2018-07-09T01:23:53.374Z,19.7777777778
2018-07-09T01:24:05.784Z,19.7777777778
2018-07-09T01:24:18.204Z,19.7222222222
2018-07-09T01:24:30.614Z,19.7222222222
2018-07-09T01:24:43.011Z,19.7222222222
2018-07-09T01:24:55.422Z,19.7777777778
2018-07-09T01:25:07.844Z,19.7777777778
2018-07-09T01:25:20.238Z,19.7222222222
2018-07-09T01:25:32.632Z,19.7222222222
2018-07-09T01:25:45.032Z,19.7777777778
2018-07-09T01:25:57.435Z,19.7222222222
2018-07-09T01:26:09.828Z,19.7222222222
2018-07-09T01:26:22.234Z,19.7222222222
2018-07-09T01:26:34.623Z,19.7222222222
2018-07-09T01:26:47.021Z,19.7222222222
2018-07-09T01:26:59.430Z,19.7222222222
2018-07-09T01:27:11.851Z,19.7222222222
2018-07-09T01:27:24.249Z,19.7222222222
2018-07-09T01:27:36.771Z,19.7222222222
2018-07-09T01:27:49.185Z,19.7222222222
2018-07-09T01:28:01.596Z,19.6666666667
2018-07-09T01:28:13.998Z,19.6666666667
2018-07-09T01:28:26.418Z,19.6666666667
2018-07-09T01:28:38.819Z,19.6666666667
2018-07-09T01:28:51.209Z,19.6666666667
2018-07-09T01:29:03.625Z,19.6666666667
2018-07-09T01:29:16.024Z,19.6666666667
2018-07-09T01:29:28.413Z,19.6666666667
2018-07-09T01:29:40.806Z,19.6666666667
2018-07-09T01:29:53.212Z,19.6666666667
2018-07-09T01:30:05.622Z,19.6666666667
2018-07-09T01:30:18.024Z,19.6666666667
2018-07-09T01:30:30.420Z,19.6666666667
2018-07-09T01:30:42.826Z,19.6666666667
2018-07-09T01:30:55.233Z,19.6111111111
2018-07-09T01:31:07.629Z,19.6111111111
2018-07-09T01:31:20.047Z,19.6111111111
2018-07-09T01:31:32.448Z,19.6111111111
2018-07-09T01:31:44.853Z,19.6111111111
2018-07-09T01:31:57.253Z,19.6111111111
2018-07-09T01:32:09.670Z,19.6111111111
2018-07-09T01:32:22.074Z,19.6111111111
2018-07-09T01:32:34.513Z,19.6111111111
2018-07-09T01:32:46.950Z,19.5555555556
2018-07-09T01:32:59.351Z,19.6111111111
2018-07-09T01:33:11.749Z,19.6111111111
2018-07-09T01:33:24.152Z,19.6111111111
2018-07-09T01:33:36.560Z,19.6111111111
2018-07-09T01:33:48.959Z,19.6111111111
2018-07-09T01:34:01.400Z,19.6111111111
2018-07-09T01:34:13.800Z,19.6111111111
2018-07-09T01:34:26.210Z,19.5555555556
2018-07-09T01:34:38.626Z,19.5555555556
2018-07-09T01:34:51.067Z,19.5555555556
2018-07-09T01:35:03.475Z,19.5555555556
2018-07-09T01:35:15.879Z,19.5555555556
2018-07-09T01:35:28.310Z,19.5555555556
2018-07-09T01:35:40.724Z,19.5555555556
2018-07-09T01:35:53.134Z,19.5555555556
2018-07-09T01:36:05.536Z,19.5555555556
2018-07-09T01:36:17.956Z,19.5555555556
2018-07-09T01:36:30.350Z,19.5555555556
2018-07-09T01:36:42.747Z,19.5555555556
2018-07-09T01:36:55.157Z,19.5555555556
2018-07-09T01:37:07.561Z,19.5555555556
2018-07-09T01:37:19.982Z,19.5555555556
2018-07-09T01:37:32.414Z,19.5555555556
2018-07-09T01:37:44.947Z,19.5555555556
2018-07-09T01:37:57.341Z,19.5555555556
2018-07-09T01:38:09.753Z,19.5
2018-07-09T01:38:22.151Z,19.5
2018-07-09T01:38:34.555Z,19.5555555556
2018-07-09T01:38:46.977Z,19.5
2018-07-09T01:38:59.396Z,19.5555555556
2018-07-09T01:39:11.793Z,19.5
2018-07-09T01:39:24.208Z,19.5
2018-07-09T01:39:36.610Z,19.5
2018-07-09T01:39:49.013Z,19.5
2018-07-09T01:40:01.412Z,19.5
2018-07-09T01:40:13.836Z,19.5
2018-07-09T01:40:26.239Z,19.5
2018-07-09T01:40:38.633Z,19.5
2018-07-09T01:40:51.034Z,19.4444444444
2018-07-09T01:41:03.467Z,19.5
2018-07-09T01:41:15.877Z,19.5
2018-07-09T01:41:28.306Z,19.5
2018-07-09T01:41:40.703Z,19.5
2018-07-09T01:41:53.113Z,19.4444444444
2018-07-09T01:42:05.536Z,19.4444444444
2018-07-09T01:42:17.936Z,19.5
2018-07-09T01:42:30.319Z,19.4444444444
2018-07-09T01:42:42.755Z,19.4444444444
2018-07-09T01:42:55.173Z,19.4444444444
2018-07-09T01:43:07.591Z,19.4444444444
2018-07-09T01:43:19.998Z,19.4444444444
2018-07-09T01:43:32.388Z,19.4444444444
2018-07-09T01:43:44.807Z,19.4444444444
2018-07-09T01:43:57.427Z,19.4444444444
2018-07-09T01:44:09.826Z,19.4444444444
2018-07-09T01:44:22.246Z,19.4444444444
2018-07-09T01:44:34.659Z,19.4444444444
2018-07-09T01:44:47.059Z,19.4444444444
2018-07-09T01:44:59.470Z,19.4444444444
2018-07-09T01:45:11.869Z,19.4444444444
2018-07-09T01:45:24.263Z,19.4444444444
2018-07-09T01:45:36.660Z,19.4444444444
2018-07-09T01:45:49.054Z,19.4444444444
2018-07-09T01:46:01.464Z,19.4444444444
2018-07-09T01:46:13.875Z,19.3888888889
2018-07-09T01:46:26.275Z,19.3888888889
2018-07-09T01:46:38.852Z,19.4444444444
2018-07-09T01:46:51.255Z,19.3888888889
2018-07-09T01:47:04.081Z,19.3888888889
2018-07-09T01:47:16.487Z,19.4444444444
2018-07-09T01:47:28.917Z,19.3888888889
2018-07-09T01:47:41.335Z,19.3888888889
2018-07-09T01:47:53.737Z,19.4444444444
2018-07-09T01:48:06.141Z,19.3888888889
2018-07-09T01:48:18.544Z,19.3888888889
2018-07-09T01:48:30.941Z,19.4444444444
2018-07-09T01:48:43.521Z,19.4444444444
2018-07-09T01:48:55.905Z,19.3888888889
2018-07-09T01:49:08.309Z,19.4444444444
2018-07-09T01:49:20.716Z,19.3888888889
2018-07-09T01:49:33.120Z,19.3888888889
2018-07-09T01:49:45.525Z,19.4444444444
2018-07-09T01:49:57.928Z,19.4444444444
2018-07-09T01:50:10.317Z,19.4444444444
2018-07-09T01:50:22.758Z,19.4444444444
2018-07-09T01:50:35.216Z,19.3888888889
2018-07-09T01:50:47.613Z,19.3888888889
2018-07-09T01:51:00.009Z,19.3888888889
2018-07-09T01:51:12.412Z,19.4444444444
2018-07-09T01:51:24.808Z,19.3888888889
2018-07-09T01:51:37.193Z,19.3888888889
2018-07-09T01:51:49.588Z,19.3888888889
2018-07-09T01:52:02.003Z,19.3888888889
2018-07-09T01:52:14.394Z,19.3888888889
2018-07-09T01:52:26.896Z,19.3888888889
2018-07-09T01:52:39.308Z,19.3888888889
2018-07-09T01:52:51.721Z,19.3888888889
2018-07-09T01:53:04.124Z,19.3888888889
2018-07-09T01:53:16.697Z,19.3888888889
2018-07-09T01:53:29.103Z,19.3888888889
2018-07-09T01:53:41.502Z,19.3333333333
2018-07-09T01:53:54.047Z,19.3888888889
2018-07-09T01:54:06.451Z,19.3888888889
2018-07-09T01:54:18.851Z,19.3333333333
2018-07-09T01:54:31.252Z,19.3888888889
2018-07-09T01:54:43.646Z,19.3333333333
2018-07-09T01:54:56.038Z,19.3888888889
2018-07-09T01:55:08.454Z,19.3888888889
2018-07-09T01:55:20.855Z,19.3333333333
2018-07-09T01:55:33.247Z,19.3888888889
2018-07-09T01:55:45.644Z,19.3888888889
2018-07-09T01:55:58.035Z,19.3333333333
2018-07-09T01:56:10.493Z,19.3333333333
2018-07-09T01:56:22.897Z,19.3333333333
2018-07-09T01:56:35.291Z,19.3333333333
2018-07-09T01:56:47.700Z,19.3333333333
2018-07-09T01:57:00.109Z,19.3333333333
2018-07-09T01:57:12.515Z,19.3333333333
2018-07-09T01:57:24.908Z,19.3333333333
2018-07-09T01:57:37.317Z,19.3333333333
2018-07-09T01:57:49.729Z,19.3333333333
2018-07-09T01:58:02.146Z,19.3333333333
2018-07-09T01:58:14.550Z,19.3333333333
2018-07-09T01:58:26.955Z,19.3333333333
2018-07-09T01:58:39.362Z,19.3333333333
2018-07-09T01:58:51.764Z,19.3333333333
2018-07-09T01:59:04.182Z,19.3333333333
2018-07-09T01:59:16.594Z,19.3333333333
2018-07-09T01:59:28.981Z,19.3333333333
2018-07-09T01:59:41.369Z,19.3333333333
2018-07-09T01:59:53.768Z,19.3333333333
2018-07-09T02:00:06.182Z,19.3333333333
2018-07-09T02:00:18.609Z,19.3333333333
2018-07-09T02:00:31.045Z,19.3333333333
2018-07-09T02:00:43.490Z,19.3333333333
2018-07-09T02:00:55.898Z,19.3333333333
2018-07-09T02:01:08.293Z,19.3333333333
2018-07-09T02:01:20.694Z,19.3333333333
2018-07-09T02:01:33.180Z,19.3333333333
2018-07-09T02:01:45.757Z,19.3333333333
2018-07-09T02:01:58.155Z,19.3333333333
2018-07-09T02:02:10.553Z,19.3333333333
2018-07-09T02:02:22.997Z,19.3333333333
2018-07-09T02:02:35.425Z,19.3333333333
2018-07-09T02:02:47.820Z,19.3333333333
2018-07-09T02:03:00.239Z,19.3333333333
2018-07-09T02:03:12.645Z,19.3333333333
2018-07-09T02:03:25.055Z,19.3333333333
2018-07-09T02:03:37.457Z,19.3333333333
2018-07-09T02:03:49.872Z,19.2777777778
2018-07-09T02:04:02.307Z,19.3333333333
2018-07-09T02:04:14.725Z,19.3333333333
2018-07-09T02:04:27.141Z,19.3333333333
2018-07-09T02:04:39.549Z,19.3333333333
2018-07-09T02:04:51.959Z,19.3333333333
2018-07-09T02:05:04.372Z,19.3333333333
2018-07-09T02:05:16.776Z,19.3333333333
2018-07-09T02:05:29.193Z,19.3333333333
2018-07-09T02:05:41.603Z,19.3333333333
2018-07-09T02:05:54.012Z,19.2777777778
2018-07-09T02:06:06.433Z,19.3333333333
2018-07-09T02:06:18.859Z,19.3333333333
2018-07-09T02:06:31.267Z,19.3333333333
2018-07-09T02:06:43.750Z,19.3333333333
2018-07-09T02:06:56.154Z,19.3333333333
2018-07-09T02:07:08.557Z,19.2777777778
2018-07-09T02:07:20.956Z,19.3333333333
2018-07-09T02:07:33.360Z,19.3333333333
2018-07-09T02:07:45.776Z,19.3333333333
2018-07-09T02:07:58.164Z,19.3333333333
2018-07-09T02:08:10.552Z,19.3333333333
2018-07-09T02:08:22.943Z,19.3333333333
2018-07-09T02:08:35.339Z,19.2777777778
2018-07-09T02:08:47.736Z,19.2777777778
2018-07-09T02:09:00.136Z,19.3333333333
2018-07-09T02:09:12.539Z,19.2777777778
2018-07-09T02:09:24.949Z,19.2777777778
2018-07-09T02:09:37.362Z,19.3333333333
2018-07-09T02:09:49.764Z,19.2777777778
2018-07-09T02:10:02.201Z,19.3333333333
2018-07-09T02:10:14.601Z,19.2777777778
2018-07-09T02:10:27.002Z,19.3333333333